»·PEaware :: UAL930 KSFO-EGLL

UAL930 :: KSFO-EGLL

FLIGHT INFORMATION

Flight Status: Arrived
Operator:
United Airlines
More flights by this operator :: More flights under this callsign
Pilot: Drew L. (13237)
Aircraft: Unknown
(B77W)
More flights by this aircraft type
Origin: KSFO San Francisco Intl
United States
Destination: EGLL Heathrow
United Kingdom
More flights between these airports :: More routes between these airports
Route: SNTNA2 ORRCA FMG MDOWS PARZZ Q121 PIH KU87Q ISN J549 YBR VLR LITRO/N0495F330 CHARN GW 57N070W LAKES/M085F330 URTAK 59N050W 59N040W 59N030W 58N020W SUNOT KESIX MIMKU/N0490F330 KELLY UL10 WAL UY53 NUGRA BNN1B
File this flight plan on PilotEdge
Remarks: PBN / A1B1C1D1L1O1S2 DOF / 180318 REG / N713SB EET / KZLC0037 KZMP0206 CZWG0212 CZUL0355 CZQX0518 BGGL0556 59N050W0559 CZQX0613 59N040W0637 EGGX0714 58N020W0752 EGPX0839 EISN0848 EGPX0853 EGTT0903 OPR / UAL PER / D RALT / CYFB BGSF RMK / TCAS SIMBRIEF
Altitude:
(Current/Filed)
31,000ft
Speed:
(Current/Filed)
492kts
Departed: 17-Mar-18 05:05 PM
Arrived: 18-Mar-18 03:29 AM
Distance/Time
Traveled:
4650nm/10:23
Distance/Time
To Go:
Arrived

Flight Plot

Page will automatically refresh every two minutes.

Flight plan parsing failed; only flown route is shown


Map Options




Map Legend


Flown Route
Filed Route
Departure Airport
Arrival Airport
Navaid (VOR, NDB)
Fix

Horizontal Profiles

Position Reports

Time Latitude Longitude Heading Altitude Ground
Speed
17-Mar-18 16:19 37.618137 -122.390967 209 26ft 0kts
17-Mar-18 16:20 37.618137 -122.390967 209 26ft 0kts
17-Mar-18 16:21 37.618137 -122.390967 209 26ft 0kts
17-Mar-18 16:22 37.618137 -122.390967 209 26ft 0kts
17-Mar-18 16:23 37.618137 -122.390967 209 26ft 0kts
17-Mar-18 16:24 37.618137 -122.390967 209 26ft 0kts
17-Mar-18 16:25 37.618137 -122.390967 209 26ft 0kts
17-Mar-18 16:26 37.618137 -122.390967 209 26ft 0kts
17-Mar-18 16:27 37.618137 -122.390967 209 26ft 0kts
17-Mar-18 16:28 37.618137 -122.390967 209 26ft 0kts
17-Mar-18 16:29 37.618137 -122.390967 209 26ft 0kts
17-Mar-18 16:30 37.618137 -122.390967 209 26ft 0kts
17-Mar-18 16:31 37.618137 -122.390967 209 26ft 0kts
17-Mar-18 16:32 37.618137 -122.390967 209 26ft 0kts
17-Mar-18 16:33 37.618137 -122.390967 209 26ft 0kts
17-Mar-18 16:34 37.618137 -122.390967 209 26ft 0kts
17-Mar-18 16:35 37.618137 -122.390967 209 26ft 0kts
17-Mar-18 16:36 37.618137 -122.390967 209 26ft 0kts
17-Mar-18 16:37 37.618137 -122.390967 209 26ft 0kts
17-Mar-18 16:38 37.618137 -122.390967 209 26ft 0kts
17-Mar-18 16:39 37.618137 -122.390967 209 26ft 0kts
17-Mar-18 16:40 37.618137 -122.390967 209 26ft 0kts
17-Mar-18 16:41 37.618137 -122.390967 209 26ft 0kts
17-Mar-18 16:42 37.618137 -122.390967 209 26ft 0kts
17-Mar-18 16:43 37.618545 -122.390670 209 26ft 2kts
17-Mar-18 16:44 37.619107 -122.390262 209 26ft 0kts
17-Mar-18 16:45 37.619107 -122.390262 209 26ft 0kts
17-Mar-18 16:46 37.619107 -122.390262 209 26ft 0kts
17-Mar-18 16:47 37.619263 -122.391079 295 26ft 0kts
17-Mar-18 16:48 37.619461 -122.391583 297 26ft 3kts
17-Mar-18 16:49 37.619474 -122.391613 297 26ft 0kts
17-Mar-18 16:50 37.619577 -122.391829 306 26ft 5kts
17-Mar-18 16:51 37.621529 -122.391321 34 26ft 17kts
17-Mar-18 16:52 37.620780 -122.384792 119 26ft 27kts
17-Mar-18 16:53 37.618752 -122.379457 123 26ft 10kts
17-Mar-18 16:54 37.618648 -122.379286 130 26ft 0kts
17-Mar-18 16:55 37.617368 -122.375766 111 26ft 15kts
17-Mar-18 16:56 37.616386 -122.373163 118 26ft 0kts
17-Mar-18 16:57 37.614628 -122.368962 130 26ft 23kts
17-Mar-18 16:58 37.612317 -122.364459 118 26ft 0kts
17-Mar-18 16:59 37.611615 -122.362797 118 26ft 20kts
17-Mar-18 17:00 37.610556 -122.359587 70 26ft 0kts
17-Mar-18 17:01 37.611680 -122.358693 354 26ft 0kts
17-Mar-18 17:02 37.612073 -122.359252 296 26ft 0kts
17-Mar-18 17:03 37.612074 -122.359253 296 26ft 0kts
17-Mar-18 17:04 37.618633 -122.374818 298 26ft 152kts
17-Mar-18 17:05 37.645390 -122.431413 303 2516ft 189kts
17-Mar-18 17:06 37.674805 -122.498557 299 3945ft 250kts
17-Mar-18 17:07 37.741159 -122.526893 355 6439ft 271kts
17-Mar-18 17:08 37.811344 -122.498900 53 8894ft 291kts
17-Mar-18 17:09 37.855698 -122.410114 50 10833ft 318kts
17-Mar-18 17:10 37.918741 -122.316757 46 12087ft 373kts
17-Mar-18 17:11 37.989156 -122.215364 47 14489ft 388kts
17-Mar-18 17:12 38.061228 -122.110674 47 16810ft 400kts
17-Mar-18 17:13 38.135838 -122.003017 47 18924ft 411kts
17-Mar-18 17:14 38.211836 -121.892236 47 20835ft 421kts
17-Mar-18 17:15 38.289766 -121.778745 47 22589ft 431kts
17-Mar-18 17:16 38.369289 -121.661520 46 24191ft 441kts
17-Mar-18 17:17 38.450216 -121.541657 47 25602ft 452kts
17-Mar-18 17:18 38.527046 -121.411209 49 26878ft 464kts
17-Mar-18 17:19 38.604583 -121.277289 49 28050ft 474kts
17-Mar-18 17:20 38.684347 -121.140991 48 29031ft 484kts
17-Mar-18 17:21 38.765832 -121.001635 48 30070ft 489kts
17-Mar-18 17:22 38.847131 -120.861431 49 31052ft 492kts
17-Mar-18 17:23 38.928525 -120.720395 49 31076ft 492kts
17-Mar-18 17:24 39.010162 -120.578293 49 31022ft 493kts
17-Mar-18 17:25 39.091444 -120.436191 50 30991ft 494kts
17-Mar-18 17:26 39.172871 -120.293197 50 30949ft 494kts
17-Mar-18 17:27 39.253830 -120.150395 50 30895ft 494kts
17-Mar-18 17:28 39.334570 -120.007335 50 30981ft 493kts
17-Mar-18 17:29 39.416096 -119.862852 51 31021ft 499kts
17-Mar-18 17:30 39.497020 -119.717639 52 31030ft 497kts
17-Mar-18 17:31 39.574893 -119.568714 56 31028ft 499kts
17-Mar-18 17:32 39.647547 -119.415270 55 31023ft 500kts
17-Mar-18 17:33 39.721021 -119.261487 56 31018ft 502kts
17-Mar-18 17:34 39.794757 -119.106300 56 31012ft 505kts
17-Mar-18 17:35 39.868239 -118.950435 57 31008ft 506kts
17-Mar-18 17:36 39.941911 -118.793020 57 31004ft 509kts
17-Mar-18 17:37 40.016098 -118.635760 57 31001ft 510kts
17-Mar-18 17:38 40.089655 -118.478539 58 30999ft 508kts
17-Mar-18 17:39 40.163324 -118.319799 58 30999ft 511kts
17-Mar-18 17:40 40.236704 -118.160816 58 30997ft 512kts
17-Mar-18 17:41 40.310012 -118.001177 58 30994ft 512kts
17-Mar-18 17:42 40.383433 -117.840465 59 30990ft 513kts
17-Mar-18 17:43 40.456416 -117.679839 59 30992ft 513kts
17-Mar-18 17:44 40.529448 -117.518283 59 30993ft 513kts
17-Mar-18 17:45 40.602010 -117.356919 59 30994ft 514kts
17-Mar-18 17:46 40.674495 -117.194896 59 30999ft 514kts
17-Mar-18 17:47 40.747079 -117.031748 60 30999ft 515kts
17-Mar-18 17:48 40.819383 -116.868382 60 30999ft 517kts
17-Mar-18 17:49 40.891803 -116.703851 60 30996ft 518kts
17-Mar-18 17:50 40.963851 -116.539287 60 30992ft 518kts
17-Mar-18 17:51 41.035741 -116.374187 60 30990ft 518kts
17-Mar-18 17:52 41.107589 -116.208276 61 30988ft 517kts
17-Mar-18 17:53 41.178835 -116.042851 61 30987ft 517kts
17-Mar-18 17:54 41.250030 -115.876640 61 30987ft 522kts
17-Mar-18 17:55 41.321711 -115.708336 62 30979ft 521kts
17-Mar-18 17:56 41.392848 -115.540377 62 30975ft 521kts
17-Mar-18 17:57 41.464240 -115.371505 61 30970ft 522kts
17-Mar-18 17:58 41.535082 -115.202265 62 30968ft 524kts
17-Mar-18 17:59 41.606575 -115.032254 59 30968ft 527kts
17-Mar-18 18:00 41.692930 -114.872149 54 30962ft 531kts
17-Mar-18 18:01 41.780696 -114.713088 55 30960ft 533kts
17-Mar-18 18:02 41.868730 -114.552711 55 30959ft 532kts
17-Mar-18 18:03 41.956013 -114.392172 55 30960ft 534kts
17-Mar-18 18:04 42.042976 -114.230981 55 30960ft 532kts
17-Mar-18 18:05 42.129855 -114.069057 55 30960ft 533kts
17-Mar-18 18:06 42.216348 -113.906984 55 30960ft 533kts
17-Mar-18 18:07 42.302621 -113.744446 56 30959ft 533kts
17-Mar-18 18:08 42.388905 -113.581008 56 30960ft 533kts
17-Mar-18 18:09 42.474609 -113.417779 56 30960ft 533kts
17-Mar-18 18:10 42.560481 -113.253343 56 30959ft 533kts
17-Mar-18 18:11 42.645980 -113.088707 56 30961ft 535kts
17-Mar-18 18:12 42.731778 -112.923482 57 30960ft 536kts
17-Mar-18 18:13 42.817207 -112.756501 57 30959ft 537kts
17-Mar-18 18:14 42.906046 -112.592680 51 30960ft 540kts
17-Mar-18 18:15 43.006093 -112.438959 50 30959ft 540kts
17-Mar-18 18:16 43.104568 -112.284227 50 30956ft 540kts
17-Mar-18 18:17 43.203289 -112.129741 51 30949ft 539kts
17-Mar-18 18:18 43.301420 -111.974098 51 30946ft 538kts
17-Mar-18 18:19 43.399467 -111.817601 51 30946ft 541kts
17-Mar-18 18:20 43.497225 -111.660715 52 30941ft 540kts
17-Mar-18 18:21 43.595035 -111.502883 52 30940ft 541kts
17-Mar-18 18:22 43.692411 -111.344892 52 30941ft 541kts
17-Mar-18 18:23 43.790175 -111.185396 52 30948ft 543kts
17-Mar-18 18:24 43.887730 -111.025354 52 30944ft 546kts
17-Mar-18 18:25 43.985500 -110.864060 52 30933ft 548kts
17-Mar-18 18:26 44.083147 -110.702075 52 30915ft 543kts
17-Mar-18 18:27 44.180070 -110.540359 52 30908ft 547kts
17-Mar-18 18:28 44.277342 -110.377146 52 30906ft 549kts
17-Mar-18 18:29 44.375209 -110.212696 53 30905ft 549kts
17-Mar-18 18:30 44.472064 -110.047682 53 30902ft 549kts
17-Mar-18 18:31 44.573750 -109.886700 48 30883ft 553kts
17-Mar-18 18:32 44.679062 -109.730651 48 30864ft 550kts
17-Mar-18 18:33 44.783338 -109.573979 48 30851ft 548kts
17-Mar-18 18:34 44.887658 -109.416552 49 30849ft 547kts
17-Mar-18 18:35 44.990937 -109.259099 49 30838ft 547kts
17-Mar-18 18:36 45.093867 -109.101206 49 30834ft 546kts
17-Mar-18 18:37 45.146028 -109.020849 49 30834ft 546kts
17-Mar-18 18:38 45.248597 -108.862146 49 30838ft 547kts
17-Mar-18 18:39 45.351456 -108.702074 49 30848ft 547kts
17-Mar-18 18:40 45.436341 -108.569283 49 30863ft 547kts
17-Mar-18 18:41 45.555908 -108.381110 49 30878ft 549kts
17-Mar-18 18:42 45.641341 -108.245872 49 30881ft 549kts
17-Mar-18 18:43 45.743415 -108.083430 49 30881ft 550kts
17-Mar-18 18:44 45.862649 -107.892434 49 30886ft 550kts
17-Mar-18 18:45 45.947398 -107.755884 49 30884ft 550kts
17-Mar-18 18:46 46.048790 -107.591598 49 30886ft 549kts
17-Mar-18 18:47 46.149848 -107.426878 49 30889ft 546kts
17-Mar-18 18:48 46.249859 -107.262884 49 30900ft 544kts
17-Mar-18 18:49 46.349354 -107.098755 49 30907ft 542kts
17-Mar-18 18:50 46.448728 -106.933839 49 30909ft 541kts
17-Mar-18 18:51 46.547344 -106.769205 49 30924ft 540kts
17-Mar-18 18:52 46.646009 -106.603463 49 30924ft 541kts
17-Mar-18 18:53 46.744010 -106.437847 50 30926ft 539kts
17-Mar-18 18:54 46.841653 -106.271859 50 30930ft 539kts
17-Mar-18 18:55 46.939145 -106.105058 50 30929ft 538kts
17-Mar-18 18:56 47.035509 -105.939195 50 30932ft 536kts
17-Mar-18 18:57 47.132105 -105.771928 50 30939ft 535kts
17-Mar-18 18:58 47.228172 -105.604545 50 30958ft 533kts
17-Mar-18 18:59 47.323423 -105.437558 50 30967ft 533kts
17-Mar-18 19:00 47.418768 -105.269372 50 30969ft 533kts
17-Mar-18 19:01 47.513555 -105.101129 50 30971ft 533kts
17-Mar-18 19:02 47.608168 -104.932147 51 30973ft 534kts
17-Mar-18 19:03 47.702999 -104.761713 51 30976ft 535kts
17-Mar-18 19:04 47.797419 -104.590943 51 30979ft 536kts
17-Mar-18 19:05 47.891777 -104.419202 51 30980ft 536kts
17-Mar-18 19:06 47.986274 -104.246107 51 30981ft 537kts
17-Mar-18 19:07 48.080533 -104.073180 51 30988ft 537kts
17-Mar-18 19:08 48.174438 -103.898563 52 30987ft 537kts
17-Mar-18 19:09 48.267344 -103.723636 54 30987ft 536kts
17-Mar-18 19:10 48.351622 -103.540237 57 30989ft 533kts
17-Mar-18 19:11 48.435338 -103.355970 57 30991ft 531kts
17-Mar-18 19:12 48.519616 -103.173868 56 30991ft 529kts
17-Mar-18 19:13 48.603318 -102.990617 57 30999ft 529kts
17-Mar-18 19:14 48.686126 -102.807627 58 31000ft 527kts
17-Mar-18 19:15 48.768528 -102.624254 58 30999ft 527kts
17-Mar-18 19:16 48.850865 -102.439759 58 30999ft 527kts
17-Mar-18 19:17 48.932433 -102.255735 58 30996ft 525kts
17-Mar-18 19:18 49.013540 -102.071487 58 30995ft 524kts
17-Mar-18 19:19 49.094353 -101.886638 58 30995ft 521kts
17-Mar-18 19:20 49.174191 -101.702762 59 30994ft 519kts
17-Mar-18 19:21 49.253842 -101.518043 59 30992ft 519kts
17-Mar-18 19:22 49.332803 -101.333652 59 30993ft 518kts
17-Mar-18 19:23 49.411390 -101.148857 59 30998ft 517kts
17-Mar-18 19:24 49.489878 -100.963003 59 31000ft 517kts
17-Mar-18 19:25 49.567640 -100.777584 59 31019ft 516kts
17-Mar-18 19:26 49.645052 -100.591692 59 32310ft 511kts
17-Mar-18 19:27 49.721408 -100.407065 59 33012ft 510kts
17-Mar-18 19:28 49.797527 -100.223035 59 33008ft 508kts
17-Mar-18 19:29 49.872732 -100.037536 59 33009ft 506kts
17-Mar-18 19:30 49.948725 -99.853661 57 33010ft 507kts
17-Mar-18 19:31 50.026781 -99.670516 58 33009ft 507kts
17-Mar-18 19:32 50.103865 -99.487491 57 33033ft 506kts
17-Mar-18 19:33 50.181601 -99.304733 57 33057ft 505kts
17-Mar-18 19:34 50.258600 -99.120798 56 33079ft 504kts
17-Mar-18 19:35 50.334864 -98.937317 56 33100ft 503kts
17-Mar-18 19:36 50.410362 -98.753053 56 33114ft 502kts
17-Mar-18 19:37 50.484504 -98.566869 57 33121ft 502kts
17-Mar-18 19:38 50.557467 -98.380143 57 33123ft 502kts
17-Mar-18 19:39 50.630865 -98.192861 56 33112ft 501kts
17-Mar-18 19:40 50.704272 -98.006238 57 33102ft 501kts
17-Mar-18 19:41 50.776870 -97.818555 56 33094ft 501kts
17-Mar-18 19:42 50.849298 -97.629759 56 33082ft 501kts
17-Mar-18 19:43 50.921529 -97.440080 57 33075ft 509kts
17-Mar-18 19:44 50.994564 -97.246756 57 33069ft 509kts
17-Mar-18 19:45 51.066896 -97.053890 57 33013ft 508kts
17-Mar-18 19:46 51.138879 -96.860512 57 33029ft 509kts
17-Mar-18 19:47 51.210733 -96.666012 57 33031ft 507kts
17-Mar-18 19:48 51.281940 -96.471804 57 33029ft 507kts
17-Mar-18 19:49 51.352724 -96.277256 57 33030ft 507kts
17-Mar-18 19:50 51.423320 -96.081738 56 33005ft 505kts
17-Mar-18 19:51 51.493332 -95.886320 56 33002ft 505kts
17-Mar-18 19:52 51.563176 -95.689891 56 33000ft 505kts
17-Mar-18 19:53 51.632449 -95.493565 56 33002ft 505kts
17-Mar-18 19:54 51.701322 -95.296789 56 32996ft 505kts
17-Mar-18 19:55 51.770118 -95.098702 56 32994ft 505kts
17-Mar-18 19:56 51.838304 -94.900814 56 33003ft 504kts
17-Mar-18 19:57 51.906103 -94.702500 56 33002ft 504kts
17-Mar-18 19:58 51.973755 -94.503018 56 33002ft 504kts
17-Mar-18 19:59 52.040783 -94.303794 56 33003ft 503kts
17-Mar-18 20:00 52.107449 -94.104061 56 33006ft 503kts
17-Mar-18 20:01 52.174013 -93.903008 56 33010ft 503kts
17-Mar-18 20:02 52.239987 -93.702102 56 33013ft 503kts
17-Mar-18 20:03 52.305556 -93.500794 56 33017ft 502kts
17-Mar-18 20:04 52.370935 -93.298414 56 33031ft 502kts
17-Mar-18 20:05 52.435633 -93.096498 55 33036ft 501kts
17-Mar-18 20:06 52.499901 -92.894240 55 33040ft 500kts
17-Mar-18 20:07 52.563965 -92.690949 55 33044ft 500kts
17-Mar-18 20:08 52.627435 -92.487853 55 33048ft 500kts
17-Mar-18 20:09 52.690769 -92.283511 55 33052ft 499kts
17-Mar-18 20:10 52.753537 -92.079248 55 33062ft 500kts
17-Mar-18 20:11 52.815959 -91.874317 55 33065ft 499kts
17-Mar-18 20:12 52.878061 -91.668759 55 33088ft 499kts
17-Mar-18 20:13 52.939612 -91.463249 55 33117ft 498kts
17-Mar-18 20:14 53.000807 -91.257152 55 33120ft 498kts
17-Mar-18 20:15 53.061808 -91.049925 55 33121ft 498kts
17-Mar-18 20:16 53.122285 -90.842674 55 33122ft 498kts
17-Mar-18 20:17 53.182355 -90.635009 55 33127ft 499kts
17-Mar-18 20:18 53.242674 -90.426221 55 33134ft 497kts
17-Mar-18 20:19 53.301973 -90.217209 55 33141ft 499kts
17-Mar-18 20:20 53.360898 -90.006380 57 33148ft 500kts
17-Mar-18 20:21 53.407183 -89.783964 64 33159ft 508kts
17-Mar-18 20:22 53.449613 -89.558396 63 33160ft 508kts
17-Mar-18 20:23 53.493797 -89.333187 62 33159ft 507kts
17-Mar-18 20:24 53.537919 -89.108284 63 33156ft 508kts
17-Mar-18 20:25 53.581138 -88.882287 63 33153ft 508kts
17-Mar-18 20:26 53.623996 -88.655147 63 33150ft 508kts
17-Mar-18 20:27 53.666272 -88.428309 63 33147ft 507kts
17-Mar-18 20:28 53.708141 -88.200864 63 33145ft 508kts
17-Mar-18 20:29 53.749665 -87.972501 63 33143ft 507kts
17-Mar-18 20:30 53.790632 -87.744374 64 33152ft 508kts
17-Mar-18 20:31 53.831195 -87.515631 64 33150ft 508kts
17-Mar-18 20:32 53.871460 -87.285662 64 33153ft 508kts
17-Mar-18 20:33 53.911195 -87.055783 65 33156ft 509kts
17-Mar-18 20:34 53.950444 -86.825726 65 33163ft 508kts
17-Mar-18 20:35 53.989368 -86.594545 66 33164ft 507kts
17-Mar-18 20:36 54.027661 -86.364113 66 33166ft 507kts
17-Mar-18 20:37 54.065522 -86.133101 66 33166ft 508kts
17-Mar-18 20:38 54.103104 -85.900703 66 33166ft 508kts
17-Mar-18 20:39 54.140125 -85.668656 67 33168ft 508kts
17-Mar-18 20:40 54.176649 -85.436418 67 33166ft 507kts
17-Mar-18 20:41 54.212801 -85.203319 68 33152ft 507kts
17-Mar-18 20:42 54.248335 -84.970916 68 33152ft 505kts
17-Mar-18 20:43 54.283389 -84.738325 69 33151ft 505kts
17-Mar-18 20:44 54.318114 -84.504529 69 33148ft 505kts
17-Mar-18 20:45 54.352280 -84.271077 69 33145ft 506kts
17-Mar-18 20:46 54.386029 -84.037006 69 33141ft 506kts
17-Mar-18 20:47 54.419409 -83.801958 70 33137ft 505kts
17-Mar-18 20:48 54.452187 -83.567583 71 33132ft 505kts
17-Mar-18 20:49 54.484482 -83.333028 71 33127ft 504kts
17-Mar-18 20:50 54.516374 -83.097725 71 33122ft 504kts
17-Mar-18 20:51 54.547659 -82.863184 72 33116ft 503kts
17-Mar-18 20:52 54.578452 -82.628574 72 33111ft 502kts
17-Mar-18 20:53 54.608860 -82.393103 72 33104ft 502kts
17-Mar-18 20:54 54.638704 -82.158071 72 33100ft 502kts
17-Mar-18 20:55 54.663239 -81.961900 73 33095ft 502kts
17-Mar-18 20:56 54.697095 -81.686499 73 33086ft 501kts
17-Mar-18 20:57 54.720805 -81.490234 73 33080ft 501kts
17-Mar-18 20:58 54.753534 -81.214571 74 33069ft 500kts
17-Mar-18 20:59 54.780977 -80.978865 74 33051ft 500kts
17-Mar-18 21:00 54.807953 -80.742939 74 33014ft 499kts
17-Mar-18 21:01 54.830163 -80.545618 74 33005ft 499kts
17-Mar-18 21:02 54.856772 -80.309684 75 32995ft 499kts
17-Mar-18 21:03 54.886266 -80.032723 75 32984ft 499kts
17-Mar-18 21:04 54.917213 -79.840932 67 32976ft 493kts
17-Mar-18 21:05 54.959982 -79.614290 68 32969ft 494kts
17-Mar-18 21:06 55.001274 -79.385648 68 32962ft 493kts
17-Mar-18 21:07 55.043211 -79.158175 69 32955ft 493kts
17-Mar-18 21:08 55.083781 -78.929673 69 32951ft 493kts
17-Mar-18 21:09 55.123960 -78.700095 69 32945ft 493kts
17-Mar-18 21:10 55.163559 -78.470891 70 32942ft 493kts
17-Mar-18 21:11 55.203147 -78.240928 69 32942ft 492kts
17-Mar-18 21:12 55.241905 -78.011141 71 32939ft 492kts
17-Mar-18 21:13 55.279838 -77.780999 70 32938ft 491kts
17-Mar-18 21:14 55.332729 -77.560520 61 32939ft 489kts
17-Mar-18 21:15 55.389817 -77.343934 63 32937ft 489kts
17-Mar-18 21:16 55.445966 -77.126301 62 32934ft 489kts
17-Mar-18 21:17 55.502806 -76.907864 63 32929ft 489kts
17-Mar-18 21:18 55.558275 -76.688973 64 32923ft 489kts
17-Mar-18 21:19 55.613420 -76.468726 64 32916ft 489kts
17-Mar-18 21:20 55.667931 -76.248768 65 32909ft 488kts
17-Mar-18 21:21 55.722037 -76.028250 65 32902ft 488kts
17-Mar-18 21:22 55.775921 -75.806373 65 32894ft 488kts
17-Mar-18 21:23 55.829262 -75.584485 65 32870ft 488kts
17-Mar-18 21:24 55.882155 -75.362230 66 32862ft 488kts
17-Mar-18 21:25 55.934841 -75.138487 66 32848ft 489kts
17-Mar-18 21:26 55.986989 -74.914724 66 32839ft 489kts
17-Mar-18 21:27 56.038873 -74.689766 67 32830ft 487kts
17-Mar-18 21:28 56.090015 -74.465620 67 32821ft 488kts
17-Mar-18 21:29 56.140847 -74.240464 67 32812ft 488kts
17-Mar-18 21:30 56.191433 -74.013981 67 32804ft 488kts
17-Mar-18 21:31 56.241448 -73.787629 68 32796ft 488kts
17-Mar-18 21:32 56.291041 -73.560688 68 32723ft 488kts
17-Mar-18 21:33 56.340301 -73.332804 68 32680ft 487kts
17-Mar-18 21:34 56.388954 -73.105200 68 32673ft 487kts
17-Mar-18 21:35 56.437280 -72.876583 69 32666ft 486kts
17-Mar-18 21:36 56.485030 -72.648134 69 32658ft 486kts
17-Mar-18 21:37 56.532390 -72.418967 69 32642ft 486kts
17-Mar-18 21:38 56.579480 -72.188479 69 32635ft 487kts
17-Mar-18 21:39 56.626015 -71.958061 70 32628ft 487kts
17-Mar-18 21:40 56.672124 -71.727060 70 32604ft 487kts
17-Mar-18 21:41 56.717960 -71.494713 70 32598ft 486kts
17-Mar-18 21:42 56.763107 -71.263125 71 32593ft 485kts
17-Mar-18 21:43 56.807924 -71.030465 71 32589ft 485kts
17-Mar-18 21:44 56.852149 -70.798085 71 32586ft 485kts
17-Mar-18 21:45 56.896123 -70.564214 71 32582ft 485kts
17-Mar-18 21:46 56.940083 -70.330941 72 32578ft 485kts
17-Mar-18 21:47 56.982503 -70.096750 72 32575ft 484kts
17-Mar-18 21:48 57.024627 -69.861491 72 32583ft 485kts
17-Mar-18 21:49 57.065607 -69.625944 73 32572ft 484kts
17-Mar-18 21:50 57.105968 -69.390193 73 32571ft 484kts
17-Mar-18 21:51 57.148104 -69.154435 73 32571ft 484kts
17-Mar-18 21:52 57.188628 -68.918217 73 32571ft 484kts
17-Mar-18 21:53 57.228573 -68.680876 73 32572ft 483kts
17-Mar-18 21:54 57.267895 -68.443897 73 32573ft 483kts
17-Mar-18 21:55 57.306725 -68.206642 74 32571ft 482kts
17-Mar-18 21:56 57.345179 -67.968457 74 32570ft 482kts
17-Mar-18 21:57 57.383061 -67.730545 74 32569ft 482kts
17-Mar-18 21:58 57.420521 -67.491967 74 32568ft 482kts
17-Mar-18 21:59 57.457667 -67.252006 75 32566ft 483kts
17-Mar-18 22:00 57.494207 -67.012549 75 32564ft 482kts
17-Mar-18 22:01 57.530424 -66.771743 75 32552ft 482kts
17-Mar-18 22:02 57.566001 -66.531680 75 32545ft 481kts
17-Mar-18 22:03 57.601064 -66.291556 76 32540ft 480kts
17-Mar-18 22:04 57.635698 -66.050775 76 32526ft 479kts
17-Mar-18 22:05 57.669753 -65.810399 76 32513ft 479kts
17-Mar-18 22:06 57.703345 -65.569621 76 32505ft 479kts
17-Mar-18 22:07 57.736635 -65.327261 77 32498ft 480kts
17-Mar-18 22:08 57.769405 -65.084876 77 32491ft 481kts
17-Mar-18 22:09 57.801769 -64.841642 77 32484ft 481kts
17-Mar-18 22:10 57.833729 -64.597461 78 32430ft 481kts
17-Mar-18 22:11 57.865045 -64.354236 78 32418ft 479kts
17-Mar-18 22:12 57.895950 -64.110160 78 32410ft 478kts
17-Mar-18 22:13 57.926292 -63.866476 78 32416ft 482kts
17-Mar-18 22:14 57.957049 -63.620744 79 32412ft 482kts
17-Mar-18 22:15 57.986213 -63.373468 79 32412ft 483kts
17-Mar-18 22:16 58.014232 -63.126414 80 32410ft 480kts
17-Mar-18 22:17 58.040064 -62.880466 80 32411ft 478kts
17-Mar-18 22:18 58.065439 -62.633478 81 32410ft 478kts
17-Mar-18 22:19 58.092529 -62.387500 80 32409ft 479kts
17-Mar-18 22:20 58.118185 -62.139668 81 32409ft 479kts
17-Mar-18 22:21 58.143041 -61.892054 81 32409ft 479kts
17-Mar-18 22:22 58.167356 -61.644336 81 32409ft 479kts
17-Mar-18 22:23 58.191236 -61.395812 81 32405ft 477kts
17-Mar-18 22:24 58.214481 -61.148599 81 32403ft 476kts
17-Mar-18 22:25 58.237212 -60.901431 81 32401ft 475kts
17-Mar-18 22:26 58.259485 -60.653746 82 32399ft 475kts
17-Mar-18 22:27 58.281214 -60.406475 82 32398ft 475kts
17-Mar-18 22:28 58.302542 -60.158014 82 32396ft 475kts
17-Mar-18 22:29 58.323317 -59.910119 82 32394ft 475kts
17-Mar-18 22:30 58.343615 -59.662127 82 32393ft 475kts
17-Mar-18 22:31 58.363450 -59.413212 82 32390ft 474kts
17-Mar-18 22:32 58.382706 -59.165468 83 32388ft 473kts
17-Mar-18 22:33 58.401466 -58.917720 83 32387ft 472kts
17-Mar-18 22:34 58.419808 -58.668895 83 32386ft 473kts
17-Mar-18 22:35 58.438437 -58.420823 84 32384ft 473kts
17-Mar-18 22:36 58.455165 -58.172101 84 32343ft 472kts
17-Mar-18 22:37 58.472911 -57.922551 81 32520ft 475kts
17-Mar-18 22:38 58.497308 -57.675425 80 33719ft 473kts
17-Mar-18 22:39 58.520440 -57.426412 81 34345ft 475kts
17-Mar-18 22:40 58.544438 -57.178758 80 34339ft 473kts
17-Mar-18 22:41 58.567689 -56.930882 81 34331ft 473kts
17-Mar-18 22:42 58.589972 -56.681987 81 34329ft 473kts
17-Mar-18 22:43 58.611626 -56.433743 81 34329ft 472kts
17-Mar-18 22:44 58.632769 -56.185375 81 34329ft 472kts
17-Mar-18 22:45 58.653526 -55.935583 81 34329ft 473kts
17-Mar-18 22:46 58.673691 -55.686859 82 34352ft 472kts
17-Mar-18 22:47 58.693438 -55.437044 82 34354ft 471kts
17-Mar-18 22:48 58.712593 -55.188374 82 34355ft 470kts
17-Mar-18 22:49 58.731269 -54.939430 82 34357ft 470kts
17-Mar-18 22:50 58.749498 -54.689879 82 34359ft 470kts
17-Mar-18 22:51 58.767170 -54.440898 83 34367ft 469kts
17-Mar-18 22:52 58.784363 -54.191753 83 34369ft 469kts
17-Mar-18 22:53 58.801127 -53.941595 83 34389ft 469kts
17-Mar-18 22:54 58.817360 -53.691983 84 34390ft 469kts
17-Mar-18 22:55 58.833135 -53.441667 84 34390ft 468kts
17-Mar-18 22:56 58.848366 -53.192128 84 34393ft 468kts
17-Mar-18 22:57 58.863116 -52.942368 84 34394ft 469kts
17-Mar-18 22:58 58.877447 -52.691391 84 34395ft 469kts
17-Mar-18 22:59 58.891235 -52.441053 85 34435ft 469kts
17-Mar-18 23:00 58.904546 -52.190482 85 34437ft 469kts
17-Mar-18 23:01 58.917415 -51.938849 85 34439ft 469kts
17-Mar-18 23:02 58.929768 -51.687680 85 34442ft 469kts
17-Mar-18 23:03 58.941670 -51.435550 85 34453ft 469kts
17-Mar-18 23:04 58.953047 -51.184064 86 34454ft 469kts
17-Mar-18 23:05 58.963915 -50.932736 86 34456ft 469kts
17-Mar-18 23:06 58.974334 -50.680455 86 34457ft 469kts
17-Mar-18 23:07 58.985086 -50.428840 87 34458ft 469kts
17-Mar-18 23:08 58.993890 -50.176918 87 34459ft 469kts
17-Mar-18 23:09 59.002800 -49.924006 87 34459ft 469kts
17-Mar-18 23:10 59.011489 -49.672130 87 34461ft 468kts
17-Mar-18 23:11 59.018137 -49.462044 87 34461ft 468kts
17-Mar-18 23:12 59.028535 -49.167006 87 34463ft 469kts
17-Mar-18 23:13 59.037137 -48.914596 87 34453ft 469kts
17-Mar-18 23:14 59.043431 -48.703268 88 34454ft 469kts
17-Mar-18 23:15 59.051534 -48.408359 88 34455ft 469kts
17-Mar-18 23:16 59.056899 -48.197618 88 34456ft 469kts
17-Mar-18 23:17 59.062907 -47.943761 88 34456ft 469kts
17-Mar-18 23:18 59.068394 -47.690772 89 34457ft 469kts
17-Mar-18 23:19 59.074175 -47.395532 89 34457ft 469kts
17-Mar-18 23:20 59.078613 -47.141393 89 34458ft 469kts
17-Mar-18 23:21 59.081922 -46.930200 90 34458ft 470kts
17-Mar-18 23:22 59.085442 -46.676546 90 34458ft 470kts
17-Mar-18 23:23 59.088479 -46.421741 90 34459ft 471kts
17-Mar-18 23:24 59.091019 -46.167441 90 34459ft 471kts
17-Mar-18 23:25 59.093054 -45.912278 91 34459ft 471kts
17-Mar-18 23:26 59.094591 -45.657547 91 34460ft 472kts
17-Mar-18 23:27 59.095630 -45.402672 91 34460ft 472kts
17-Mar-18 23:28 59.096172 -45.146792 91 34485ft 472kts
17-Mar-18 23:29 59.096208 -44.891754 92 34487ft 472kts
17-Mar-18 23:30 59.095745 -44.636544 92 34488ft 473kts
17-Mar-18 23:31 59.094776 -44.380190 92 34490ft 473kts
17-Mar-18 23:32 59.093306 -44.124643 92 34492ft 473kts
17-Mar-18 23:33 59.091333 -43.867834 93 34495ft 474kts
17-Mar-18 23:34 59.088838 -43.611316 93 34496ft 475kts
17-Mar-18 23:35 59.085846 -43.354601 93 34500ft 476kts
17-Mar-18 23:36 59.082322 -43.096838 93 34501ft 476kts
17-Mar-18 23:37 59.078300 -42.839565 94 34504ft 476kts
17-Mar-18 23:38 59.073767 -42.582275 94 34507ft 477kts
17-Mar-18 23:39 59.068700 -42.323851 94 34511ft 477kts
17-Mar-18 23:40 59.063135 -42.066171 94 34514ft 478kts
17-Mar-18 23:41 59.057030 -41.807377 95 34519ft 480kts
17-Mar-18 23:42 59.050411 -41.548698 95 34523ft 480kts
17-Mar-18 23:43 59.043278 -41.290062 95 34527ft 480kts
17-Mar-18 23:44 59.035600 -41.030364 95 34531ft 481kts
17-Mar-18 23:45 59.027412 -40.771340 96 34536ft 481kts
17-Mar-18 23:46 59.019471 -40.511945 96 34552ft 482kts
17-Mar-18 23:47 59.009836 -40.251854 97 34558ft 482kts
17-Mar-18 23:48 59.000485 -39.992418 93 34563ft 484kts
17-Mar-18 23:49 59.008381 -39.730214 88 34569ft 489kts
17-Mar-18 23:50 59.017874 -39.466506 89 34575ft 489kts
17-Mar-18 23:51 59.027071 -39.203241 88 34579ft 490kts
17-Mar-18 23:52 59.036375 -38.938754 89 34586ft 490kts
17-Mar-18 23:53 59.044254 -38.674511 89 34592ft 491kts
17-Mar-18 23:54 59.051489 -38.409951 90 34598ft 491kts
17-Mar-18 23:55 59.058208 -38.143961 90 34604ft 492kts
17-Mar-18 23:56 59.064361 -37.878756 90 34609ft 493kts
17-Mar-18 23:57 59.069993 -37.612364 90 34615ft 494kts
17-Mar-18 23:58 59.075094 -37.344926 90 34621ft 494kts
17-Mar-18 23:59 59.079636 -37.078069 91 34631ft 494kts
18-Mar-18 00:00 59.083643 -36.810207 91 34848ft 495kts
18-Mar-18 00:01 59.087094 -36.542698 91 34863ft 495kts
18-Mar-18 00:02 59.089996 -36.275035 91 34864ft 495kts
18-Mar-18 00:03 59.092352 -36.006479 91 34865ft 496kts
18-Mar-18 00:04 59.094152 -35.738192 91 34865ft 497kts
18-Mar-18 00:05 59.095399 -35.469703 92 34866ft 497kts
18-Mar-18 00:06 59.096094 -35.200125 92 34866ft 497kts
18-Mar-18 00:07 59.096236 -34.931291 92 34868ft 498kts
18-Mar-18 00:08 59.095809 -34.662285 92 34867ft 498kts
18-Mar-18 00:09 59.094829 -34.392535 92 34867ft 497kts
18-Mar-18 00:10 59.093296 -34.123837 93 34867ft 497kts
18-Mar-18 00:11 59.091198 -33.854099 93 34867ft 497kts
18-Mar-18 00:12 59.088553 -33.585410 93 34867ft 498kts
18-Mar-18 00:13 59.085354 -33.316677 93 34867ft 498kts
18-Mar-18 00:14 59.081580 -33.047083 93 34879ft 497kts
18-Mar-18 00:15 59.077264 -32.778402 93 35001ft 498kts
18-Mar-18 00:16 59.072394 -32.509819 94 35004ft 498kts
18-Mar-18 00:17 59.066949 -32.240366 94 35007ft 498kts
18-Mar-18 00:18 59.060969 -31.971976 94 35009ft 498kts
18-Mar-18 00:19 59.054419 -31.703040 94 35011ft 497kts
18-Mar-18 00:20 59.047344 -31.435265 94 35013ft 497kts
18-Mar-18 00:21 59.039713 -31.167525 95 35016ft 497kts
18-Mar-18 00:22 59.031506 -30.899049 95 35018ft 496kts
18-Mar-18 00:23 59.022799 -30.632106 95 35020ft 496kts
18-Mar-18 00:24 59.014231 -30.365099 96 35022ft 496kts
18-Mar-18 00:25 59.003813 -30.097787 96 35024ft 496kts
18-Mar-18 00:26 58.990551 -29.832226 99 35026ft 494kts
18-Mar-18 00:27 58.972773 -29.568672 99 35027ft 494kts
18-Mar-18 00:28 58.954974 -29.304332 98 35032ft 494kts
18-Mar-18 00:29 58.939270 -29.040564 98 35032ft 493kts
18-Mar-18 00:30 58.921686 -28.777096 99 35034ft 492kts
18-Mar-18 00:31 58.903411 -28.514951 99 35093ft 492kts
18-Mar-18 00:32 58.884582 -28.253113 99 35078ft 492kts
18-Mar-18 00:33 58.865161 -27.990764 100 35079ft 492kts
18-Mar-18 00:34 58.845351 -27.730554 100 35079ft 489kts
18-Mar-18 00:35 58.825056 -27.471070 100 35079ft 489kts
18-Mar-18 00:36 58.804201 -27.211483 100 35080ft 488kts
18-Mar-18 00:37 58.782909 -26.953182 101 35080ft 488kts
18-Mar-18 00:38 58.761160 -26.695866 101 35080ft 487kts
18-Mar-18 00:39 58.738850 -26.438365 101 35080ft 486kts
18-Mar-18 00:40 58.716139 -26.182421 101 35081ft 485kts
18-Mar-18 00:41 58.692854 -25.926063 101 35081ft 485kts
18-Mar-18 00:42 58.669220 -25.671759 102 35081ft 484kts
18-Mar-18 00:43 58.645100 -25.417957 102 35089ft 483kts
18-Mar-18 00:44 58.620460 -25.164279 102 35089ft 482kts
18-Mar-18 00:45 58.595461 -24.912370 103 35089ft 481kts
18-Mar-18 00:46 58.570022 -24.661317 103 35089ft 480kts
18-Mar-18 00:47 58.544059 -24.410298 103 35089ft 479kts
18-Mar-18 00:48 58.517717 -24.160684 103 35089ft 479kts
18-Mar-18 00:49 58.490825 -23.910839 103 35088ft 478kts
18-Mar-18 00:50 58.463600 -23.662735 103 35088ft 477kts
18-Mar-18 00:51 58.435917 -23.415209 104 35024ft 476kts
18-Mar-18 00:52 58.407777 -23.168151 104 35018ft 475kts
18-Mar-18 00:53 58.379314 -22.922940 104 35017ft 473kts
18-Mar-18 00:54 58.350481 -22.678898 104 34986ft 472kts
18-Mar-18 00:55 58.321177 -22.435155 104 35071ft 471kts
18-Mar-18 00:56 58.291513 -22.192612 104 35077ft 470kts
18-Mar-18 00:57 58.261431 -21.950887 104 35078ft 470kts
18-Mar-18 00:58 58.230834 -21.709080 105 35077ft 470kts
18-Mar-18 00:59 58.199920 -21.468740 105 35089ft 469kts
18-Mar-18 01:00 58.168533 -21.228641 105 35089ft 468kts
18-Mar-18 01:01 58.136911 -20.990567 106 35087ft 466kts
18-Mar-18 01:02 58.104976 -20.753870 106 35096ft 464kts
18-Mar-18 01:03 58.073162 -20.517680 106 35097ft 462kts
18-Mar-18 01:04 58.040566 -20.283636 107 35097ft 460kts
18-Mar-18 01:05 58.007280 -20.050901 107 35101ft 460kts
18-Mar-18 01:06 57.969146 -19.820677 111 35034ft 458kts
18-Mar-18 01:07 57.927192 -19.594318 111 35034ft 459kts
18-Mar-18 01:08 57.885502 -19.367982 110 35032ft 459kts
18-Mar-18 01:09 57.845332 -19.139961 110 35035ft 458kts
18-Mar-18 01:10 57.803911 -18.914221 110 35035ft 457kts
18-Mar-18 01:11 57.761847 -18.688869 110 35036ft 457kts
18-Mar-18 01:12 57.719545 -18.465041 111 35036ft 456kts
18-Mar-18 01:13 57.676941 -18.242237 111 35037ft 455kts
18-Mar-18 01:14 57.633843 -18.019352 111 35042ft 455kts
18-Mar-18 01:15 57.590523 -17.798008 111 35038ft 454kts
18-Mar-18 01:16 57.546928 -17.577682 111 35038ft 453kts
18-Mar-18 01:17 57.502824 -17.357245 111 35039ft 454kts
18-Mar-18 01:18 57.458544 -17.138360 111 35040ft 452kts
18-Mar-18 01:19 57.413961 -16.920392 111 35040ft 451kts
18-Mar-18 01:20 57.369005 -16.702949 111 35041ft 451kts
18-Mar-18 01:21 57.323907 -16.487141 111 35042ft 449kts
18-Mar-18 01:22 57.278367 -16.271509 111 35042ft 448kts
18-Mar-18 01:23 57.232713 -16.057600 111 35043ft 448kts
18-Mar-18 01:24 57.186746 -15.844452 111 35044ft 446kts
18-Mar-18 01:25 57.140418 -15.631798 111 35045ft 446kts
18-Mar-18 01:26 57.094576 -15.419952 111 35046ft 446kts
18-Mar-18 01:27 57.047336 -15.209451 111 35048ft 446kts
18-Mar-18 01:28 57.008293 -15.033561 107 35193ft 445kts
18-Mar-18 01:29 56.988536 -14.772479 94 35203ft 443kts
18-Mar-18 01:30 56.979577 -14.585171 94 35220ft 442kts
18-Mar-18 01:31 56.967573 -14.322706 94 35222ft 442kts
18-Mar-18 01:32 56.955378 -14.098824 94 35224ft 441kts
18-Mar-18 01:33 56.931749 -13.916385 107 35227ft 443kts
18-Mar-18 01:34 56.885854 -13.707453 109 35229ft 443kts
18-Mar-18 01:35 56.831419 -13.464886 109 35230ft 442kts
18-Mar-18 01:36 56.793394 -13.290721 108 35231ft 442kts
18-Mar-18 01:37 56.747469 -13.083259 109 35233ft 442kts
18-Mar-18 01:38 56.700762 -12.876839 109 35233ft 441kts
18-Mar-18 01:39 56.653556 -12.670541 109 35234ft 440kts
18-Mar-18 01:40 56.606263 -12.465859 108 35238ft 439kts
18-Mar-18 01:41 56.558539 -12.261328 108 35238ft 439kts
18-Mar-18 01:42 56.510694 -12.058226 108 35236ft 439kts
18-Mar-18 01:43 56.462570 -11.855863 108 35235ft 436kts
18-Mar-18 01:44 56.414319 -11.654787 108 35235ft 435kts
18-Mar-18 01:45 56.365891 -11.454855 108 35233ft 435kts
18-Mar-18 01:46 56.317205 -11.255679 108 35232ft 434kts
18-Mar-18 01:47 56.268100 -11.056618 109 35229ft 434kts
18-Mar-18 01:48 56.218867 -10.858793 109 35228ft 433kts
18-Mar-18 01:49 56.169418 -10.661908 109 35224ft 433kts
18-Mar-18 01:50 56.119928 -10.464607 108 35220ft 432kts
18-Mar-18 01:51 56.069978 -10.269167 109 35216ft 432kts
18-Mar-18 01:52 56.019258 -10.074045 109 35211ft 431kts
18-Mar-18 01:53 55.963520 -9.883638 115 35205ft 436kts
18-Mar-18 01:54 55.899772 -9.699775 115 35197ft 437kts
18-Mar-18 01:55 55.836363 -9.514439 115 35190ft 438kts
18-Mar-18 01:56 55.774199 -9.328275 115 35170ft 438kts
18-Mar-18 01:57 55.711390 -9.142809 116 35167ft 440kts
18-Mar-18 01:58 55.647653 -8.957157 116 35163ft 440kts
18-Mar-18 01:59 55.583795 -8.772758 116 35156ft 439kts
18-Mar-18 02:00 55.519698 -8.589085 116 35152ft 438kts
18-Mar-18 02:01 55.455668 -8.406974 116 35153ft 436kts
18-Mar-18 02:02 55.391463 -8.225730 117 35144ft 437kts
18-Mar-18 02:03 55.326615 -8.044028 117 35141ft 438kts
18-Mar-18 02:04 55.261730 -7.863557 117 35138ft 438kts
18-Mar-18 02:05 55.196358 -7.683052 117 35134ft 440kts
18-Mar-18 02:06 55.130169 -7.501657 118 35125ft 442kts
18-Mar-18 02:07 55.063719 -7.320882 118 35116ft 444kts
18-Mar-18 02:08 54.996558 -7.139510 118 35112ft 444kts
18-Mar-18 02:09 54.929280 -6.959145 118 35118ft 446kts
18-Mar-18 02:10 54.861455 -6.778634 119 35135ft 447kts
18-Mar-18 02:11 54.793003 -6.597792 119 35155ft 448kts
18-Mar-18 02:12 54.724208 -6.417362 119 35166ft 451kts
18-Mar-18 02:13 54.654801 -6.236649 120 35168ft 452kts
18-Mar-18 02:14 54.584565 -6.055108 120 35170ft 455kts
18-Mar-18 02:15 54.514008 -5.874061 120 35169ft 455kts
18-Mar-18 02:16 54.443155 -5.693573 120 35147ft 456kts
18-Mar-18 02:17 54.371800 -5.513120 121 35151ft 456kts
18-Mar-18 02:18 54.300586 -5.334289 121 35134ft 454kts
18-Mar-18 02:19 54.228984 -5.155805 121 35110ft 453kts
18-Mar-18 02:20 54.157591 -4.979079 121 35093ft 452kts
18-Mar-18 02:21 54.086133 -4.803259 121 35085ft 451kts
18-Mar-18 02:22 54.014522 -4.627270 122 35082ft 452kts
18-Mar-18 02:23 53.941876 -4.452217 122 35077ft 456kts
18-Mar-18 02:24 53.869531 -4.276312 122 35014ft 454kts
18-Mar-18 02:25 53.797302 -4.100451 121 34912ft 454kts
18-Mar-18 02:26 53.725506 -3.925465 122 34840ft 454kts
18-Mar-18 02:27 53.652523 -3.751121 122 34763ft 453kts
18-Mar-18 02:28 53.579782 -3.577956 123 34679ft 453kts
18-Mar-18 02:29 53.507283 -3.404492 123 34505ft 454kts
18-Mar-18 02:30 53.433557 -3.231780 123 34481ft 454kts
18-Mar-18 02:31 53.359544 -3.060493 124 34628ft 455kts
18-Mar-18 02:32 53.283599 -2.890968 124 34904ft 456kts
18-Mar-18 02:33 53.207168 -2.720731 125 35017ft 458kts
18-Mar-18 02:34 53.130669 -2.551519 124 34959ft 457kts
18-Mar-18 02:35 53.059366 -2.376278 123 34914ft 456kts
18-Mar-18 02:36 52.966859 -2.232901 145 34817ft 464kts
18-Mar-18 02:37 52.856425 -2.122721 145 34696ft 464kts
18-Mar-18 02:38 52.746640 -2.009478 145 34481ft 457kts
18-Mar-18 02:39 52.638131 -1.896269 145 32584ft 494kts
18-Mar-18 02:40 52.522666 -1.777465 146 32972ft 463kts
18-Mar-18 02:41 52.410482 -1.662199 146 32557ft 489kts
18-Mar-18 02:42 52.293052 -1.543412 146 33202ft 490kts
18-Mar-18 02:43 52.179636 -1.416115 138 33507ft 502kts
18-Mar-18 02:44 52.075509 -1.268968 138 34365ft 499kts
18-Mar-18 02:45 51.969538 -1.122686 138 35349ft 492kts
18-Mar-18 02:46 51.865274 -0.972414 130 35236ft 507kts
18-Mar-18 02:47 51.795982 -0.776658 114 36069ft 500kts
18-Mar-18 02:48 51.732512 -0.577212 124 35778ft 487kts
18-Mar-18 02:49 51.623997 -0.477189 186 34765ft 478kts
18-Mar-18 02:50 51.539069 -0.616591 261 33008ft 461kts
18-Mar-18 02:51 51.571995 -0.807322 293 31227ft 436kts
18-Mar-18 02:52 51.627678 -0.972970 318 29677ft 415kts
18-Mar-18 02:53 51.728197 -0.969568 52 28176ft 378kts
18-Mar-18 02:54 51.769314 -0.819005 74 26707ft 364kts
18-Mar-18 02:55 51.766261 -0.670898 126 25211ft 336kts
18-Mar-18 02:56 51.722521 -0.539374 121 23710ft 329kts
18-Mar-18 02:57 51.643521 -0.505966 205 22199ft 336kts
18-Mar-18 02:58 51.616742 -0.644422 284 20707ft 364kts
18-Mar-18 02:59 51.658249 -0.792675 293 19222ft 363kts
18-Mar-18 03:00 51.706353 -0.938692 313 17717ft 361kts
18-Mar-18 03:01 51.786524 -0.928323 63 15917ft 305kts
18-Mar-18 03:02 51.802214 -0.797554 106 14639ft 304kts
18-Mar-18 03:03 51.768437 -0.683923 120 13783ft 263kts
18-Mar-18 03:04 51.735632 -0.581596 116 13176ft 255kts
18-Mar-18 03:05 51.695003 -0.489814 138 12709ft 254kts
18-Mar-18 03:06 51.639213 -0.418048 138 11820ft 254kts
18-Mar-18 03:07 51.587176 -0.343131 135 10824ft 250kts
18-Mar-18 03:08 51.536700 -0.267257 134 9815ft 245kts
18-Mar-18 03:09 51.488199 -0.195403 135 8842ft 237kts
18-Mar-18 03:10 51.440637 -0.125653 134 7842ft 227kts
18-Mar-18 03:11 51.395218 -0.059199 133 6999ft 214kts
18-Mar-18 03:12 51.350867 0.005482 135 6958ft 219kts
18-Mar-18 03:13 51.296549 -0.022679 247 6969ft 262kts
18-Mar-18 03:14 51.318327 -0.126386 295 6966ft 246kts
18-Mar-18 03:15 51.336356 -0.236056 277 5960ft 261kts
18-Mar-18 03:16 51.343771 -0.353692 272 4769ft 269kts
18-Mar-18 03:17 51.347496 -0.472793 272 3856ft 254kts
18-Mar-18 03:18 51.350908 -0.577342 273 3419ft 219kts
18-Mar-18 03:19 51.354808 -0.672966 278 3018ft 212kts
18-Mar-18 03:20 51.373749 -0.757624 329 2962ft 195kts
18-Mar-18 03:21 51.423265 -0.784664 356 2993ft 183kts
18-Mar-18 03:22 51.459672 -0.761012 66 2971ft 144kts
18-Mar-18 03:23 51.464011 -0.699746 87 2703ft 131kts
18-Mar-18 03:24 51.464264 -0.643724 87 2037ft 125kts
18-Mar-18 03:25 51.464454 -0.586855 86 1359ft 130kts
18-Mar-18 03:26 51.464644 -0.528697 86 665ft 129kts
18-Mar-18 03:27 51.464839 -0.471793 87 97ft 110kts
18-Mar-18 03:28 51.465967 -0.450987 36 96ft 12kts
18-Mar-18 03:29 51.467516 -0.448454 89 96ft 13kts
18-Mar-18 03:30 51.469742 -0.445679 338 96ft 3kts
18-Mar-18 03:31 51.470025 -0.446820 269 96ft 0kts
18-Mar-18 03:32 51.470025 -0.446820 269 96ft 0kts
18-Mar-18 03:33 51.470025 -0.446820 269 96ft 0kts

Navigation Log

Ident Type
Flight plan parsing failed, navigation log unavailable